Time;durP1;ratioP1;P1;durP2;ratioP2;P2;SDS_P1;SDS_P2;PMS_P1;PMS_P2;Temp;Humidity;BMP_temperature;BMP_pressure;BME280_temperature;BME280_humidity;BME280_pressure;Samples;Min_cycle;Max_cycle;Signal;HPM_P1;HPM_P2
2022/04/13 00:01:04;;;;;;;16.55;9.30;;;12.60;99.90;;;;;;5055761;28;20053;-91
2022/04/13 00:03:29;;;;;;;13.98;9.82;;;12.60;99.90;;;;;;5021549;28;20179;-90
2022/04/13 00:05:55;;;;;;;13.32;9.43;;;12.60;99.90;;;;;;5020288;28;20061;-91
2022/04/13 00:08:21;;;;;;;14.23;9.05;;;12.60;99.90;;;;;;5036727;28;20053;-90
2022/04/13 00:10:47;;;;;;;14.13;9.43;;;12.50;99.90;;;;;;5035645;28;20044;-90
2022/04/13 00:13:13;;;;;;;13.60;9.25;;;12.50;99.90;;;;;;5052697;28;20393;-91
2022/04/13 00:15:40;;;;;;;16.05;9.27;;;12.50;99.90;;;;;;5052930;28;20091;-91
2022/04/13 00:18:07;;;;;;;15.80;8.57;;;12.50;99.90;;;;;;5036494;28;20098;-91
2022/04/13 00:20:33;;;;;;;13.80;9.18;;;12.50;99.90;;;;;;5038366;28;20048;-91
2022/04/13 00:22:58;;;;;;;13.25;8.40;;;12.50;99.90;;;;;;5021177;28;20144;-90
2022/04/13 00:25:24;;;;;;;14.35;8.20;;;12.50;99.90;;;;;;5037975;28;20045;-90
2022/04/13 00:27:50;;;;;;;16.50;8.38;;;12.40;99.90;;;;;;5055858;28;20049;-90
2022/04/13 00:30:15;;;;;;;15.82;7.88;;;12.50;99.90;;;;;;5054723;28;20127;-90
2022/04/13 00:32:41;;;;;;;15.90;8.02;;;12.60;99.90;;;;;;5037727;28;20063;-90
2022/04/13 00:35:08;;;;;;;12.73;8.18;;;12.60;99.90;;;;;;5038093;28;20398;-90
2022/04/13 00:37:36;;;;;;;16.30;7.30;;;12.70;99.90;;;;;;5021466;28;20452;-90
2022/04/13 00:40:02;;;;;;;14.27;7.40;;;12.70;99.90;;;;;;5021104;28;20061;-91
2022/04/13 00:42:29;;;;;;;10.07;7.22;;;12.80;99.90;;;;;;5020710;28;20567;-90
2022/04/13 00:44:54;;;;;;;9.95;6.97;;;12.80;99.90;;;;;;5054357;28;20507;-91
2022/04/13 00:47:21;;;;;;;15.25;7.53;;;12.80;99.90;;;;;;5054516;28;20127;-90
2022/04/13 00:49:47;;;;;;;14.75;7.72;;;12.80;99.90;;;;;;5055302;28;20564;-90
2022/04/13 00:52:15;;;;;;;13.07;7.00;;;12.80;99.90;;;;;;5055146;28;20049;-90
2022/04/13 00:54:43;;;;;;;12.43;6.93;;;12.80;99.90;;;;;;5037140;28;20116;-90
2022/04/13 00:57:11;;;;;;;9.55;6.50;;;12.80;99.90;;;;;;5021334;28;20410;-90
2022/04/13 00:59:38;;;;;;;18.13;6.20;;;12.70;99.90;;;;;;5037386;28;20151;-90
2022/04/13 01:02:07;;;;;;;13.70;7.38;;;12.70;99.90;;;;;;5055021;28;20460;-91
2022/04/13 01:04:34;;;;;;;12.82;7.25;;;12.80;99.90;;;;;;5021280;28;20052;-91
2022/04/13 01:07:01;;;;;;;12.40;7.13;;;12.70;99.90;;;;;;5037599;28;20037;-91
2022/04/13 01:09:28;;;;;;;16.67;7.28;;;12.70;99.90;;;;;;5053772;28;20554;-91
2022/04/13 01:11:53;;;;;;;10.68;7.05;;;12.70;99.90;;;;;;5020666;28;20114;-91
2022/04/13 01:14:20;;;;;;;15.52;6.70;;;12.60;99.90;;;;;;5020865;28;20140;-90
2022/04/13 01:16:46;;;;;;;12.18;6.60;;;12.60;99.90;;;;;;5020273;28;20049;-91
2022/04/13 01:19:14;;;;;;;9.07;6.80;;;12.50;99.90;;;;;;5037260;28;20045;-91
2022/04/13 01:21:52;;;;;;;14.18;6.88;;;12.50;99.90;;;;;;5020493;28;20037;-91
2022/04/13 01:24:20;;;;;;;10.05;6.63;;;12.40;99.90;;;;;;5020858;28;20052;-90
2022/04/13 01:26:46;;;;;;;15.27;7.18;;;12.30;99.90;;;;;;5037124;28;20498;-90
2022/04/13 01:29:13;;;;;;;11.45;6.90;;;12.30;99.90;;;;;;5020326;28;20052;-90
2022/04/13 01:31:40;;;;;;;14.73;7.80;;;12.20;99.90;;;;;;5054512;28;20053;-90
2022/04/13 01:34:07;;;;;;;13.15;7.68;;;12.10;99.90;;;;;;5019977;28;20053;-91
2022/04/13 01:36:34;;;;;;;11.55;6.75;;;12.00;99.90;;;;;;5020035;28;20120;-91
2022/04/13 01:39:00;;;;;;;11.93;7.15;;;12.10;99.90;;;;;;5036810;28;20056;-91
2022/04/13 01:41:25;;;;;;;14.65;7.55;;;12.00;99.90;;;;;;5020351;28;20056;-91
2022/04/13 01:43:51;;;;;;;14.80;7.32;;;11.90;99.90;;;;;;5020556;28;20116;-91
2022/04/13 01:46:17;;;;;;;12.40;7.00;;;11.90;99.90;;;;;;5036615;28;20394;-90
2022/04/13 01:48:43;;;;;;;15.52;7.78;;;11.80;99.90;;;;;;5036375;28;20045;-90
2022/04/13 01:51:09;;;;;;;12.15;7.38;;;11.80;99.90;;;;;;5036408;28;20080;-90
2022/04/13 01:53:35;;;;;;;13.90;7.80;;;11.70;99.90;;;;;;5020025;28;20470;-90
2022/04/13 01:56:01;;;;;;;14.07;7.63;;;11.80;99.90;;;;;;5036375;28;20091;-90
2022/04/13 01:58:27;;;;;;;11.55;7.78;;;11.60;99.90;;;;;;5036518;28;20080;-91
2022/04/13 02:00:56;;;;;;;12.68;7.60;;;11.60;99.90;;;;;;5036136;28;20480;-90
2022/04/13 02:03:26;;;;;;;12.40;8.45;;;11.60;99.90;;;;;;5036436;28;20063;-90
2022/04/13 02:05:53;;;;;;;11.23;7.93;;;11.50;99.90;;;;;;5019703;28;20053;-92
2022/04/13 02:08:22;;;;;;;13.13;8.00;;;11.50;99.90;;;;;;5019903;28;20127;-90
2022/04/13 02:10:49;;;;;;;13.27;7.90;;;11.60;99.90;;;;;;5019875;28;20088;-90
2022/04/13 02:13:15;;;;;;;12.13;7.22;;;11.50;99.90;;;;;;5019745;28;20052;-91
2022/04/13 02:15:42;;;;;;;12.43;7.72;;;11.50;99.90;;;;;;5035927;28;20049;-90
2022/04/13 02:18:08;;;;;;;15.73;7.93;;;11.50;99.90;;;;;;5019827;28;20087;-91
2022/04/13 02:20:34;;;;;;;10.90;7.10;;;11.60;99.90;;;;;;5053673;28;20511;-91
2022/04/13 02:23:01;;;;;;;13.88;7.65;;;11.50;99.90;;;;;;5019769;28;20135;-91
2022/04/13 02:25:28;;;;;;;23.55;8.32;;;11.60;99.90;;;;;;5036158;28;20413;-91
2022/04/13 02:27:54;;;;;;;13.82;7.90;;;11.50;99.90;;;;;;5035982;28;20048;-90
2022/04/13 02:30:19;;;;;;;14.05;7.90;;;11.50;99.90;;;;;;5019512;28;20446;-90
2022/04/13 02:32:45;;;;;;;14.00;7.85;;;11.50;99.90;;;;;;5019193;28;20048;-90
2022/04/13 02:35:12;;;;;;;19.17;7.90;;;11.40;99.90;;;;;;5035806;28;20045;-90
2022/04/13 02:37:38;;;;;;;11.63;7.75;;;11.40;99.90;;;;;;5035563;28;20051;-90
2022/04/13 02:40:06;;;;;;;12.23;7.50;;;11.40;99.90;;;;;;5018468;28;20195;-90
2022/04/13 02:42:36;;;;;;;13.73;8.52;;;11.40;99.90;;;;;;5035398;28;20052;-91
2022/04/13 02:45:04;;;;;;;13.40;8.00;;;11.30;99.90;;;;;;5018254;28;20049;-90
2022/04/13 02:47:32;;;;;;;10.70;8.48;;;11.30;99.90;;;;;;5035503;28;20088;-90
2022/04/13 02:49:57;;;;;;;14.38;8.50;;;11.20;99.90;;;;;;5018604;28;20128;-90
2022/04/13 02:52:25;;;;;;;12.82;7.53;;;11.10;99.90;;;;;;5018934;28;20135;-90
2022/04/13 02:54:51;;;;;;;16.92;8.52;;;11.10;99.90;;;;;;5035595;28;20044;-90
2022/04/13 02:57:17;;;;;;;13.40;8.57;;;11.00;99.90;;;;;;5019132;28;20041;-90
2022/04/13 02:59:46;;;;;;;14.63;8.40;;;10.90;99.90;;;;;;5035332;28;20059;-90
2022/04/13 03:02:14;;;;;;;15.13;7.65;;;10.80;99.90;;;;;;5052830;28;20180;-90
2022/04/13 03:04:44;;;;;;;14.70;8.98;;;10.90;99.90;;;;;;5018781;28;20083;-90
2022/04/13 03:07:11;;;;;;;13.82;8.85;;;10.90;99.90;;;;;;5035544;28;20106;-90
2022/04/13 03:09:38;;;;;;;16.27;9.13;;;10.90;99.90;;;;;;5051747;28;20055;-90
2022/04/13 03:12:06;;;;;;;15.35;9.60;;;10.90;99.90;;;;;;5035254;28;20132;-90
2022/04/13 03:14:31;;;;;;;19.35;9.45;;;10.90;99.90;;;;;;5035205;28;20098;-90
2022/04/13 03:16:57;;;;;;;13.02;9.45;;;11.00;99.90;;;;;;5018488;28;20044;-91
2022/04/13 03:19:22;;;;;;;12.10;9.05;;;11.00;99.90;;;;;;5052338;28;20045;-91
2022/04/13 03:21:51;;;;;;;14.68;9.27;;;10.80;99.90;;;;;;5018445;28;20053;-90
2022/04/13 03:24:17;;;;;;;14.85;9.52;;;10.80;99.90;;;;;;5034945;28;20041;-90
2022/04/13 03:26:43;;;;;;;15.05;10.48;;;10.70;99.90;;;;;;5035103;28;20048;-91
2022/04/13 03:29:09;;;;;;;16.33;10.75;;;10.70;99.90;;;;;;5018196;28;20045;-91
2022/04/13 03:31:35;;;;;;;18.80;11.07;;;10.70;99.90;;;;;;5051239;28;20053;-90
2022/04/13 03:34:01;;;;;;;18.80;10.75;;;10.60;99.90;;;;;;5051390;28;20060;-90
2022/04/13 03:36:27;;;;;;;18.90;11.02;;;10.60;99.90;;;;;;5051385;28;20049;-91
2022/04/13 03:38:53;;;;;;;17.42;10.80;;;10.50;99.90;;;;;;5034972;28;20147;-90
2022/04/13 03:41:18;;;;;;;16.65;10.95;;;10.50;99.90;;;;;;5018359;28;20053;-90
2022/04/13 03:43:44;;;;;;;16.85;11.35;;;10.40;99.90;;;;;;5018469;28;20063;-90
2022/04/13 03:46:10;;;;;;;19.10;11.80;;;10.40;99.90;;;;;;5034550;28;20049;-90
2022/04/13 03:48:35;;;;;;;19.25;11.13;;;10.40;99.90;;;;;;5034514;28;20402;-90
2022/04/13 03:51:01;;;;;;;18.58;11.43;;;10.30;99.90;;;;;;5034224;28;20063;-89
2022/04/13 03:53:27;;;;;;;19.00;11.73;;;10.30;99.90;;;;;;5037328;28;20048;-90
2022/04/13 03:55:53;;;;;;;19.08;11.57;;;10.20;99.90;;;;;;5022359;28;20438;-90
2022/04/13 03:58:18;;;;;;;20.75;12.70;;;10.20;99.90;;;;;;5022271;28;20068;-90
2022/04/13 04:00:44;;;;;;;21.75;11.73;;;10.20;99.90;;;;;;5022114;28;20059;-90
2022/04/13 04:03:10;;;;;;;22.15;12.50;;;10.10;99.90;;;;;;5037383;28;20092;-89
2022/04/13 04:05:37;;;;;;;19.95;12.85;;;10.10;99.90;;;;;;5055054;28;20472;-90
2022/04/13 04:08:03;;;;;;;18.92;12.57;;;10.20;99.90;;;;;;5021538;28;20526;-89
2022/04/13 04:10:28;;;;;;;24.95;13.73;;;10.00;99.90;;;;;;5056301;28;20041;-90
2022/04/13 04:12:55;;;;;;;20.90;13.70;;;10.00;99.90;;;;;;5038478;28;20037;-90
2022/04/13 04:15:21;;;;;;;22.15;13.25;;;10.00;99.90;;;;;;5021733;28;20059;-91
2022/04/13 04:17:47;;;;;;;26.52;13.68;;;9.90;99.90;;;;;;5038178;28;20053;-90
2022/04/13 04:20:13;;;;;;;24.42;13.10;;;10.00;99.90;;;;;;5055832;28;20055;-90
2022/04/13 04:22:39;;;;;;;22.83;12.88;;;9.90;99.90;;;;;;5021713;28;20041;-90
2022/04/13 04:25:07;;;;;;;26.67;14.25;;;10.00;99.90;;;;;;5021347;28;20064;-90
2022/04/13 04:27:33;;;;;;;23.83;13.85;;;10.00;99.90;;;;;;5038271;28;20457;-90
2022/04/13 04:29:59;;;;;;;23.95;14.23;;;9.90;99.90;;;;;;5021101;28;20155;-90
2022/04/13 04:32:25;;;;;;;27.83;14.45;;;9.90;99.90;;;;;;5021686;28;20044;-89
2022/04/13 04:34:50;;;;;;;20.85;14.13;;;10.10;99.90;;;;;;5021311;28;20147;-90
2022/04/13 04:37:16;;;;;;;25.90;14.27;;;9.90;99.90;;;;;;5020765;28;20049;-90
2022/04/13 04:39:42;;;;;;;27.13;14.65;;;10.00;99.90;;;;;;5037895;28;20049;-90
2022/04/13 04:42:07;;;;;;;26.35;14.82;;;10.00;99.90;;;;;;5055479;28;20052;-90
2022/04/13 04:44:33;;;;;;;25.08;14.75;;;10.00;99.90;;;;;;5020987;28;20049;-90
2022/04/13 04:46:59;;;;;;;24.63;14.57;;;10.00;99.90;;;;;;5037452;28;20057;-90
2022/04/13 04:49:25;;;;;;;26.60;15.75;;;10.00;99.90;;;;;;5037588;28;20045;-90
2022/04/13 04:51:50;;;;;;;24.02;15.52;;;10.00;99.90;;;;;;5054325;28;20083;-90
2022/04/13 04:54:18;;;;;;;31.52;16.30;;;10.00;99.90;;;;;;5037550;28;20072;-90
2022/04/13 04:56:44;;;;;;;28.27;16.45;;;10.10;99.90;;;;;;5055069;28;20490;-90
2022/04/13 04:59:10;;;;;;;28.48;15.07;;;10.00;99.90;;;;;;5037720;28;20099;-90
2022/04/13 05:01:35;;;;;;;24.17;14.98;;;10.10;99.90;;;;;;5037178;28;20477;-89
2022/04/13 05:04:01;;;;;;;25.98;14.68;;;10.10;99.90;;;;;;5054391;28;20102;-89
2022/04/13 05:06:29;;;;;;;25.30;15.52;;;10.20;99.90;;;;;;5037343;28;20128;-90
2022/04/13 05:08:55;;;;;;;28.40;15.80;;;10.20;99.90;;;;;;5054691;28;20044;-90
2022/04/13 05:11:21;;;;;;;20.75;14.18;;;10.30;99.90;;;;;;5022279;28;20403;-90
2022/04/13 05:13:48;;;;;;;23.42;14.65;;;10.30;99.90;;;;;;5039565;28;20084;-90
2022/04/13 05:16:14;;;;;;;26.42;15.25;;;10.30;99.90;;;;;;5054983;28;20474;-90
2022/04/13 05:18:41;;;;;;;31.70;14.57;;;10.40;99.90;;;;;;5053963;28;20049;-89
2022/04/13 05:21:08;;;;;;;23.58;14.80;;;10.40;99.90;;;;;;5020697;28;20091;-91
2022/04/13 05:23:34;;;;;;;23.42;14.73;;;10.40;99.90;;;;;;5036996;28;20418;-90
2022/04/13 05:26:00;;;;;;;25.00;15.52;;;10.40;99.90;;;;;;5037101;28;20052;-90
2022/04/13 05:28:25;;;;;;;20.70;14.00;;;10.40;99.90;;;;;;5020552;28;20049;-90
2022/04/13 05:30:51;;;;;;;25.00;14.85;;;10.40;99.90;;;;;;5019889;28;20061;-91
2022/04/13 05:33:17;;;;;;;29.35;14.77;;;10.40;99.90;;;;;;5036838;28;20372;-90
2022/04/13 05:35:45;;;;;;;23.08;14.55;;;10.40;99.90;;;;;;5036385;28;20534;-90
2022/04/13 05:38:11;;;;;;;25.42;14.70;;;10.40;99.90;;;;;;5036155;28;20051;-90
2022/04/13 05:40:36;;;;;;;23.55;14.98;;;10.50;99.90;;;;;;5020318;28;20053;-90
2022/04/13 05:43:02;;;;;;;22.85;15.10;;;10.40;99.90;;;;;;5036988;28;20049;-90
2022/04/13 05:45:28;;;;;;;20.77;14.65;;;10.50;99.90;;;;;;5036282;28;20044;-90
2022/04/13 05:47:54;;;;;;;23.50;14.50;;;10.50;99.90;;;;;;5036516;28;20053;-90
2022/04/13 05:50:19;;;;;;;21.98;13.35;;;10.40;99.90;;;;;;5036465;28;20052;-90
2022/04/13 05:52:45;;;;;;;24.08;14.90;;;10.50;99.90;;;;;;5036349;28;20041;-90
2022/04/13 05:55:11;;;;;;;24.52;14.57;;;10.50;99.90;;;;;;5036559;28;20131;-90
2022/04/13 05:57:38;;;;;;;28.10;16.00;;;10.60;99.90;;;;;;5054060;28;20406;-89
2022/04/13 06:00:06;;;;;;;27.08;15.30;;;10.60;99.90;;;;;;5019775;28;20057;-90
2022/04/13 06:02:33;;;;;;;25.40;14.90;;;10.70;99.90;;;;;;5019725;28;20099;-90
2022/04/13 06:04:59;;;;;;;25.13;15.18;;;10.70;99.90;;;;;;5052464;28;20127;-89
2022/04/13 06:07:24;;;;;;;23.35;14.65;;;10.80;99.90;;;;;;5052620;28;20171;-90
2022/04/13 06:09:50;;;;;;;25.67;15.18;;;10.90;99.90;;;;;;5019918;28;20056;-90
2022/04/13 06:12:23;;;;;;;27.30;15.20;;;11.00;99.90;;;;;;5035904;28;20045;-88
2022/04/13 06:14:49;;;;;;;25.08;14.70;;;11.20;99.90;;;;;;5035653;28;20049;-91
2022/04/13 06:17:16;;;;;;;24.38;14.40;;;11.30;99.90;;;;;;5019686;28;20064;-90
2022/04/13 06:19:42;;;;;;;21.35;14.02;;;11.50;99.90;;;;;;5054051;28;20120;-90
2022/04/13 06:22:08;;;;;;;23.63;13.68;;;11.60;99.90;;;;;;5036049;28;20045;-90
2022/04/13 06:24:34;;;;;;;23.35;13.35;;;11.90;99.90;;;;;;5019757;28;20089;-90
2022/04/13 06:27:00;;;;;;;23.92;13.90;;;12.20;99.90;;;;;;5036568;28;20091;-88
2022/04/13 06:29:26;;;;;;;22.38;12.73;;;12.50;99.90;;;;;;5052571;28;20469;-91
2022/04/13 06:31:51;;;;;;;20.52;11.52;;;12.70;99.90;;;;;;5053493;28;20076;-90
2022/04/13 06:34:17;;;;;;;16.67;10.88;;;12.90;99.90;;;;;;5035865;28;20083;-89
2022/04/13 06:36:43;;;;;;;17.95;11.35;;;13.10;99.90;;;;;;5035652;28;20049;-91
2022/04/13 06:39:09;;;;;;;22.27;11.52;;;13.30;99.90;;;;;;5019090;28;20056;-89
2022/04/13 06:41:35;;;;;;;23.13;11.40;;;13.40;99.90;;;;;;5018905;28;20127;-90
2022/04/13 06:44:02;;;;;;;16.95;10.80;;;13.60;99.90;;;;;;5035221;28;20127;-91
2022/04/13 06:46:28;;;;;;;19.00;10.25;;;13.70;99.90;;;;;;5035970;28;20040;-90
2022/04/13 06:48:54;;;;;;;18.67;9.93;;;13.80;99.90;;;;;;5034876;28;20053;-90
2022/04/13 06:51:19;;;;;;;17.60;10.25;;;13.90;99.90;;;;;;5053090;28;20526;-90
2022/04/13 06:53:45;;;;;;;21.55;10.20;;;13.80;99.90;;;;;;5035538;28;20041;-90
2022/04/13 06:56:11;;;;;;;17.95;10.68;;;13.80;99.90;;;;;;5019176;28;20045;-90
2022/04/13 06:58:37;;;;;;;18.77;10.00;;;13.80;99.90;;;;;;5051926;28;20053;-90
2022/04/13 07:01:03;;;;;;;18.70;9.95;;;13.80;99.90;;;;;;5035532;28;20048;-90
2022/04/13 07:03:29;;;;;;;17.70;10.30;;;13.90;99.90;;;;;;5035452;28;20049;-90
2022/04/13 07:05:54;;;;;;;17.33;9.73;;;14.00;99.90;;;;;;5019113;28;20072;-90
2022/04/13 07:08:20;;;;;;;19.40;10.15;;;14.20;99.90;;;;;;5053161;28;20128;-88
2022/04/13 07:10:47;;;;;;;16.17;9.40;;;14.30;99.90;;;;;;5019634;28;20482;-89
2022/04/13 07:13:14;;;;;;;17.38;9.00;;;14.40;99.90;;;;;;5035776;28;20053;-90
2022/04/13 07:15:40;;;;;;;20.67;9.23;;;14.70;99.90;;;;;;5051488;28;20510;-90
2022/04/13 07:18:06;;;;;;;14.90;8.60;;;14.90;99.90;;;;;;5018780;28;20131;-90
2022/04/13 07:20:31;;;;;;;15.95;8.30;;;15.10;99.90;;;;;;5035103;28;20060;-88
2022/04/13 07:22:57;;;;;;;14.10;8.23;;;15.30;99.90;;;;;;5018160;28;20064;-89
2022/04/13 07:25:23;;;;;;;14.95;8.32;;;15.30;99.90;;;;;;5052532;28;20148;-90
2022/04/13 07:27:49;;;;;;;13.98;8.18;;;15.40;99.90;;;;;;5037311;28;20045;-90
2022/04/13 07:30:15;;;;;;;13.05;7.70;;;15.40;99.90;;;;;;5022633;28;20380;-90
2022/04/13 07:32:51;;;;;;;15.55;8.40;;;15.40;99.90;;;;;;5022285;28;20061;-90
2022/04/13 07:35:17;;;;;;;15.57;8.02;;;15.50;99.90;;;;;;5041740;28;20044;-88
2022/04/13 07:37:43;;;;;;;18.92;8.30;;;15.60;99.90;;;;;;5023754;28;20068;-88
2022/04/13 07:40:14;;;;;;;15.02;8.43;;;15.60;99.90;;;;;;5026668;28;20072;-89
2022/04/13 07:42:40;;;;;;;14.52;7.90;;;15.60;99.90;;;;;;5027951;28;20053;-91
2022/04/13 07:45:08;;;;;;;19.60;8.63;;;15.50;99.90;;;;;;5043080;28;20113;-89
2022/04/13 07:47:34;;;;;;;13.85;8.02;;;15.50;99.90;;;;;;5026061;28;20049;-89
2022/04/13 07:50:00;;;;;;;14.98;7.68;;;15.60;99.90;;;;;;5025644;28;20037;-90
2022/04/13 07:52:26;;;;;;;12.00;7.78;;;15.60;99.90;;;;;;5039401;28;20048;-91
2022/04/13 07:54:52;;;;;;;11.77;8.05;;;15.60;99.90;;;;;;5038830;28;20048;-89
2022/04/13 07:57:18;;;;;;;16.83;7.47;;;15.70;99.90;;;;;;5055612;28;20044;-90
2022/04/13 07:59:44;;;;;;;15.27;7.68;;;15.70;99.90;;;;;;5053804;28;20445;-90
2022/04/13 08:02:09;;;;;;;16.15;7.82;;;15.80;99.90;;;;;;5036867;28;20057;-90
2022/04/13 08:04:36;;;;;;;12.65;7.75;;;15.90;99.90;;;;;;5019839;28;20060;-88
2022/04/13 08:07:02;;;;;;;13.43;7.65;;;15.80;99.90;;;;;;5019316;28;20085;-88
2022/04/13 08:09:27;;;;;;;16.13;7.43;;;15.80;99.90;;;;;;5019627;28;20091;-89
2022/04/13 08:11:53;;;;;;;15.05;8.05;;;15.80;99.90;;;;;;5020069;28;20524;-87
2022/04/13 08:14:22;;;;;;;13.20;8.07;;;15.80;99.90;;;;;;5019516;28;20110;-88
2022/04/13 08:16:49;;;;;;;16.33;7.90;;;15.70;99.90;;;;;;5035903;28;20053;-89
2022/04/13 08:19:15;;;;;;;17.02;8.15;;;15.70;99.90;;;;;;5035658;28;20462;-88
2022/04/13 08:21:41;;;;;;;16.20;7.82;;;15.70;99.90;;;;;;5034974;28;20104;-88
2022/04/13 08:24:06;;;;;;;13.77;7.20;;;15.40;99.90;;;;;;5035085;28;20127;-89
2022/04/13 08:26:33;;;;;;;15.18;6.65;;;15.80;99.90;;;;;;5051583;28;20094;-88
2022/04/13 08:28:58;;;;;;;14.93;6.82;;;16.40;99.90;;;;;;5034725;28;20041;-88
2022/04/13 08:31:24;;;;;;;11.23;6.60;;;17.20;99.90;;;;;;5035858;28;20055;-88
2022/04/13 08:33:50;;;;;;;14.43;7.25;;;17.60;99.90;;;;;;5039248;28;20076;-87
2022/04/13 08:36:17;;;;;;;17.73;6.82;;;17.60;99.90;;;;;;5054512;28;20053;-89
2022/04/13 08:38:43;;;;;;;13.30;6.50;;;17.40;99.90;;;;;;5019587;28;20068;-89
2022/04/13 08:41:15;;;;;;;14.50;6.47;;;17.50;99.90;;;;;;5022337;28;20041;-90
2022/04/13 08:43:56;;;;;;;14.88;5.90;;;17.70;99.90;;;;;;5021785;28;20443;-89
2022/04/13 08:46:26;;;;;;;11.75;5.78;;;18.30;99.90;;;;;;5021650;28;20134;-90
2022/04/13 08:48:55;;;;;;;11.70;6.13;;;18.90;99.90;;;;;;5021725;28;20059;-89
2022/04/13 08:51:23;;;;;;;15.82;5.78;;;19.10;99.90;;;;;;5055489;28;20049;-88
2022/04/13 08:53:58;;;;;;;12.77;5.25;;;19.30;99.90;;;;;;5056043;28;20126;-89
2022/04/13 08:56:24;;;;;;;8.75;5.15;;;19.70;99.90;;;;;;5021693;28;20052;-87
2022/04/13 08:58:59;;;;;;;11.55;5.30;;;20.10;99.90;;;;;;5021060;28;20053;-89
2022/04/13 09:01:38;;;;;;;9.80;5.53;;;20.70;99.90;;;;;;5037506;28;20081;-89
2022/04/13 09:04:07;;;;;;;13.82;5.35;;;21.10;99.90;;;;;;5021057;28;20057;-88
2022/04/13 09:06:35;;;;;;;14.68;6.07;;;21.30;99.90;;;;;;5037713;28;20087;-90
2022/04/13 09:09:02;;;;;;;8.60;5.30;;;21.50;99.90;;;;;;5037427;28;20041;-90
2022/04/13 09:11:28;;;;;;;10.73;5.25;;;22.10;99.00;;;;;;5037646;28;20036;-88
2022/04/13 09:13:54;;;;;;;7.85;4.70;;;22.50;96.20;;;;;;5038002;28;20102;-90
2022/04/13 09:16:19;;;;;;;8.35;4.88;;;22.50;95.30;;;;;;5037215;28;20041;-90
2022/04/13 09:18:46;;;;;;;8.75;4.40;;;22.40;94.50;;;;;;5021271;28;20132;-90
2022/04/13 09:21:17;;;;;;;11.60;5.22;;;22.30;94.90;;;;;;5054253;28;20048;-88
2022/04/13 09:23:44;;;;;;;10.70;5.43;;;22.50;93.70;;;;;;5021072;28;20088;-91
2022/04/13 09:26:10;;;;;;;9.35;5.30;;;22.60;95.00;;;;;;5037645;28;20482;-90
2022/04/13 09:28:37;;;;;;;8.57;5.38;;;23.10;91.40;;;;;;5021049;28;20041;-87
2022/04/13 09:31:03;;;;;;;9.73;4.88;;;23.30;90.10;;;;;;5021027;28;20406;-89
2022/04/13 09:33:30;;;;;;;10.18;5.47;;;23.00;90.60;;;;;;5037001;28;20476;-90
2022/04/13 09:35:55;;;;;;;11.93;5.43;;;22.70;91.80;;;;;;5037817;28;20045;-90
2022/04/13 09:38:21;;;;;;;8.57;4.25;;;22.40;94.40;;;;;;5055129;28;20037;-88
2022/04/13 09:40:51;;;;;;;9.73;4.00;;;22.70;91.60;;;;;;5053813;28;20066;-90
2022/04/13 09:43:18;;;;;;;8.15;4.28;;;22.50;89.40;;;;;;5036931;28;20066;-89
2022/04/13 09:45:46;;;;;;;9.38;4.57;;;22.40;91.20;;;;;;5036873;28;20052;-90
2022/04/13 09:48:14;;;;;;;8.05;4.30;;;22.50;90.90;;;;;;5021048;28;20084;-86
2022/04/13 09:50:41;;;;;;;7.28;4.28;;;22.70;90.60;;;;;;5037115;28;20040;-91
2022/04/13 09:53:09;;;;;;;9.93;4.50;;;23.30;84.70;;;;;;5037392;28;20055;-89
2022/04/13 09:55:43;;;;;;;8.75;4.03;;;24.00;78.70;;;;;;5020689;28;20167;-88
2022/04/13 09:58:13;;;;;;;9.43;4.45;;;24.60;76.20;;;;;;5036723;28;20505;-90
2022/04/13 10:00:40;;;;;;;7.55;4.22;;;25.00;69.50;;;;;;5019801;28;20060;-89
2022/04/13 10:03:17;;;;;;;5.78;3.75;;;24.90;69.20;;;;;;5037030;28;20059;-91
2022/04/13 10:05:51;;;;;;;8.23;3.80;;;24.30;70.80;;;;;;5020501;28;20041;-89
2022/04/13 10:08:22;;;;;;;8.73;3.50;;;23.80;68.20;;;;;;5036311;28;20053;-88
2022/04/13 10:10:50;;;;;;;6.47;2.45;;;23.20;75.10;;;;;;5020043;28;20048;-88
2022/04/13 10:13:34;;;;;;;7.70;3.20;;;22.70;72.90;;;;;;5019972;28;20045;-89
2022/04/13 10:16:05;;;;;;;5.40;2.80;;;22.70;77.20;;;;;;5019582;28;20147;-89
2022/04/13 10:18:52;;;;;;;3.75;2.10;;;23.40;73.30;;;;;;5020036;28;20048;-89
2022/04/13 10:21:42;;;;;;;4.47;2.20;;;24.40;62.30;;;;;;5036475;28;20052;-88
2022/04/13 10:24:11;;;;;;;6.68;2.50;;;24.90;59.40;;;;;;5036325;28;20044;-90
2022/04/13 10:26:39;;;;;;;5.47;2.85;;;25.30;59.20;;;;;;5053755;28;20101;-91
2022/04/13 10:29:16;;;;;;;6.32;3.13;;;25.80;58.30;;;;;;5019559;28;20098;-91
2022/04/13 10:31:49;;;;;;;6.90;2.67;;;26.00;57.20;;;;;;5019586;28;20053;-88
2022/04/13 10:34:15;;;;;;;7.40;3.35;;;25.90;58.50;;;;;;5035779;28;20072;-88
2022/04/13 10:36:41;;;;;;;6.43;3.53;;;25.90;57.80;;;;;;5036125;28;20037;-89
2022/04/13 10:39:06;;;;;;;8.20;3.80;;;25.90;57.20;;;;;;5018628;28;20060;-90
2022/04/13 10:41:33;;;;;;;5.15;3.45;;;26.20;57.40;;;;;;5019462;28;20583;-89
2022/04/13 10:44:01;;;;;;;5.82;3.67;;;26.50;56.10;;;;;;5019165;28;20503;-91
2022/04/13 10:46:29;;;;;;;7.95;2.33;;;26.60;56.40;;;;;;5036297;28;20088;-92
2022/04/13 10:49:07;;;;;;;9.10;3.10;;;26.60;54.50;;;;;;5036281;28;20045;-89
2022/04/13 10:51:36;;;;;;;5.05;2.78;;;26.20;53.90;;;;;;5035993;28;20041;-90
2022/04/13 10:54:07;;;;;;;6.97;2.80;;;25.50;56.90;;;;;;5020134;28;20447;-91
2022/04/13 10:56:34;;;;;;;6.75;3.08;;;24.70;59.50;;;;;;5019937;28;20087;-91
2022/04/13 10:59:02;;;;;;;7.97;4.18;;;24.10;63.30;;;;;;5019150;28;20048;-90
2022/04/13 11:01:42;;;;;;;7.22;4.32;;;23.60;66.70;;;;;;5019445;28;20057;-91
2022/04/13 11:04:08;;;;;;;6.30;3.78;;;23.20;72.20;;;;;;5035965;28;20135;-90
2022/04/13 11:06:35;;;;;;;6.43;4.00;;;22.90;74.20;;;;;;5019203;28;20041;-90
2022/04/13 11:09:26;;;;;;;10.23;4.18;;;22.70;78.60;;;;;;5035690;28;20122;-90
2022/04/13 11:11:55;;;;;;;7.05;4.15;;;22.30;79.50;;;;;;5035822;28;20041;-87
2022/04/13 11:14:25;;;;;;;8.35;5.32;;;22.10;84.90;;;;;;5018790;28;20144;-90
2022/04/13 11:17:13;;;;;;;10.33;5.77;;;21.80;90.30;;;;;;5019407;28;20067;-88
2022/04/13 11:19:41;;;;;;;10.70;6.35;;;21.60;91.70;;;;;;5035648;28;20088;-87
2022/04/13 11:22:06;;;;;;;9.77;5.63;;;21.50;92.00;;;;;;5018910;28;20128;-88
2022/04/13 11:24:37;;;;;;;9.25;5.53;;;21.30;92.50;;;;;;5018871;28;20132;-90
2022/04/13 11:27:05;;;;;;;8.07;5.45;;;21.20;92.50;;;;;;5035361;28;20041;-90
2022/04/13 11:29:39;;;;;;;8.32;4.60;;;21.10;92.90;;;;;;5018720;28;20498;-88
2022/04/13 11:32:12;;;;;;;7.72;4.70;;;21.10;92.80;;;;;;5019143;28;20049;-89
2022/04/13 11:35:06;;;;;;;8.82;4.97;;;21.00;92.10;;;;;;5035080;28;20049;-89
2022/04/13 11:37:34;;;;;;;10.65;5.45;;;20.70;93.30;;;;;;5018576;28;20064;-90
2022/04/13 11:40:06;;;;;;;10.65;4.97;;;20.50;95.50;;;;;;5035489;28;20052;-89
2022/04/13 11:42:35;;;;;;;10.25;5.20;;;20.40;95.00;;;;;;5018807;28;20048;-87
2022/04/13 11:45:07;;;;;;;7.07;4.80;;;20.30;96.00;;;;;;5019020;28;20439;-90
2022/04/13 11:47:40;;;;;;;9.05;3.95;;;20.30;96.40;;;;;;5018543;28;20037;-89
2022/04/13 11:50:12;;;;;;;8.85;4.20;;;20.50;95.00;;;;;;5034760;28;20383;-89
2022/04/13 11:52:40;;;;;;;6.20;3.47;;;20.60;93.10;;;;;;5035163;28;20084;-90
2022/04/13 11:55:35;;;;;;;6.95;3.80;;;20.80;93.80;;;;;;5018451;28;20037;-90
2022/04/13 11:58:09;;;;;;;7.93;3.47;;;21.20;92.30;;;;;;4972026;28;20061;-90
2022/04/13 12:00:42;;;;;;;10.23;3.60;;;21.50;89.20;;;;;;4974594;28;20064;-88
2022/04/13 12:03:12;;;;;;;5.25;2.95;;;21.60;85.60;;;;;;4991084;28;20104;-89
2022/04/13 12:05:39;;;;;;;7.10;3.90;;;21.50;90.40;;;;;;4974895;28;20153;-90
2022/04/13 12:08:13;;;;;;;8.07;3.40;;;21.40;90.50;;;;;;4990715;28;20526;-89
2022/04/13 12:10:45;;;;;;;10.50;4.05;;;21.50;90.60;;;;;;4958728;28;20053;-87
2022/04/13 12:13:11;;;;;;;6.53;3.40;;;21.50;91.00;;;;;;4975288;28;20093;-89
2022/04/13 12:15:51;;;;;;;8.65;4.40;;;21.30;91.20;;;;;;4962833;28;20480;-89
2022/04/13 12:18:21;;;;;;;10.48;5.22;;;21.20;92.30;;;;;;4963467;28;20046;-88
2022/04/13 12:20:48;;;;;;;11.77;5.78;;;21.00;94.10;;;;;;4963677;28;20054;-89
2022/04/13 12:23:19;;;;;;;15.52;7.10;;;20.80;96.50;;;;;;4984790;28;20062;-89
2022/04/13 12:25:46;;;;;;;15.30;7.93;;;20.70;99.00;;;;;;4984354;28;20551;-89
2022/04/13 12:28:13;;;;;;;18.27;8.02;;;20.50;99.90;;;;;;4983023;28;20093;-89
2022/04/13 12:30:39;;;;;;;13.90;7.82;;;20.20;99.90;;;;;;4978885;28;20419;-88
2022/04/13 12:33:21;;;;;;;16.50;8.50;;;19.90;99.90;;;;;;4994278;28;20603;-86
2022/04/13 12:36:07;;;;;;;20.77;7.80;;;19.70;99.90;;;;;;5017112;28;20057;-89
2022/04/13 12:38:38;;;;;;;11.07;7.50;;;19.30;99.90;;;;;;5035083;28;20041;-90